<?xml version="1.0" encoding="UTF-8" standalone="no" ?>
<gpx xmlns="http://www.topografix.com/GPX/1/1" xmlns:xsi="http://www.w3.org/2001/XMLSchema-instance" xsi:schemaLocation="http://www.topografix.com/GPX/1/1 http://www.topografix.com/GPX/1/1/gpx.xsd" version="1.1" creator="VisuGPX - https://www.visugpx.com">
  <metadata>
    <name>pas brochier, bec de l'orient, buffe, pas de la cle</name>
    <desc><![CDATA[Pas Brochier, au pied de la falaise, suivre les points bleus droit dans les dalles, ne pas prendre la sente qui part à droite. Superbes points de vue, le sentier des crêtes est très fréquenté. Les pas sont à éviter par temps humide.



]]></desc>
  </metadata>
  <trk>
    <name><![CDATA[11275910-200705 Brochier Orient Buffe Clé]]></name>
    <trkseg>
      <trkpt lat="45.2415" lon="5.55947">
        <ele>1212</ele>
        <time>2020-07-05T16:05:17Z</time>
      </trkpt>
      <trkpt lat="45.24144" lon="5.55915">
        <ele>1209</ele>
        <time>2020-07-05T16:05:48Z</time>
      </trkpt>
      <trkpt lat="45.24141" lon="5.55857">
        <ele>1207</ele>
        <time>2020-07-05T16:06:43Z</time>
      </trkpt>
      <trkpt lat="45.24146" lon="5.55827">
        <ele>1202</ele>
        <time>2020-07-05T16:07:12Z</time>
      </trkpt>
      <trkpt lat="45.24146" lon="5.55797">
        <ele>1202</ele>
        <time>2020-07-05T16:07:40Z</time>
      </trkpt>
      <trkpt lat="45.24173" lon="5.55723">
        <ele>1188</ele>
        <time>2020-07-05T16:08:58Z</time>
      </trkpt>
      <trkpt lat="45.24136" lon="5.55689">
        <ele>1203</ele>
        <time>2020-07-05T16:09:57Z</time>
      </trkpt>
      <trkpt lat="45.24055" lon="5.55632">
        <ele>1227</ele>
        <time>2020-07-05T16:11:58Z</time>
      </trkpt>
      <trkpt lat="45.23985" lon="5.55533">
        <ele>1247</ele>
        <time>2020-07-05T16:14:10Z</time>
      </trkpt>
      <trkpt lat="45.23961" lon="5.55435">
        <ele>1252</ele>
        <time>2020-07-05T16:15:47Z</time>
      </trkpt>
      <trkpt lat="45.23903" lon="5.55309">
        <ele>1264</ele>
        <time>2020-07-05T16:18:08Z</time>
      </trkpt>
      <trkpt lat="45.23853" lon="5.55168">
        <ele>1257</ele>
        <time>2020-07-05T16:20:37Z</time>
      </trkpt>
      <trkpt lat="45.23845" lon="5.55082">
        <ele>1252</ele>
        <time>2020-07-05T16:21:58Z</time>
      </trkpt>
      <trkpt lat="45.23863" lon="5.54917">
        <ele>1235</ele>
        <time>2020-07-05T16:24:35Z</time>
      </trkpt>
      <trkpt lat="45.23878" lon="5.5481">
        <ele>1230</ele>
        <time>2020-07-05T16:26:18Z</time>
      </trkpt>
      <trkpt lat="45.23796" lon="5.54852">
        <ele>1273</ele>
        <time>2020-07-05T16:28:14Z</time>
      </trkpt>
      <trkpt lat="45.23778" lon="5.54887">
        <ele>1282</ele>
        <time>2020-07-05T16:28:55Z</time>
      </trkpt>
      <trkpt lat="45.23742" lon="5.54894">
        <ele>1304</ele>
        <time>2020-07-05T16:29:43Z</time>
      </trkpt>
      <trkpt lat="45.23724" lon="5.54891">
        <ele>1316</ele>
        <time>2020-07-05T16:30:07Z</time>
      </trkpt>
      <trkpt lat="45.23698" lon="5.5491">
        <ele>1332</ele>
        <time>2020-07-05T16:30:46Z</time>
      </trkpt>
      <trkpt lat="45.23689" lon="5.54927">
        <ele>1340</ele>
        <time>2020-07-05T16:31:06Z</time>
      </trkpt>
      <trkpt lat="45.2366" lon="5.54933">
        <ele>1369</ele>
        <time>2020-07-05T16:31:46Z</time>
      </trkpt>
      <trkpt lat="45.23636" lon="5.54952">
        <ele>1414</ele>
        <time>2020-07-05T16:32:22Z</time>
      </trkpt>
      <trkpt lat="45.23624" lon="5.5495">
        <ele>1433</ele>
        <time>2020-07-05T16:32:38Z</time>
      </trkpt>
      <trkpt lat="45.23618" lon="5.54954">
        <ele>1444</ele>
        <time>2020-07-05T16:32:47Z</time>
      </trkpt>
      <trkpt lat="45.23621" lon="5.54989">
        <ele>1446</ele>
        <time>2020-07-05T16:33:20Z</time>
      </trkpt>
      <trkpt lat="45.2361" lon="5.54991">
        <ele>1463</ele>
        <time>2020-07-05T16:33:35Z</time>
      </trkpt>
      <trkpt lat="45.23612" lon="5.55011">
        <ele>1462</ele>
        <time>2020-07-05T16:33:54Z</time>
      </trkpt>
      <trkpt lat="45.23619" lon="5.5502">
        <ele>1454</ele>
        <time>2020-07-05T16:34:07Z</time>
      </trkpt>
      <trkpt lat="45.23622" lon="5.55033">
        <ele>1453</ele>
        <time>2020-07-05T16:34:20Z</time>
      </trkpt>
      <trkpt lat="45.23638" lon="5.55054">
        <ele>1442</ele>
        <time>2020-07-05T16:34:49Z</time>
      </trkpt>
      <trkpt lat="45.23648" lon="5.55053">
        <ele>1432</ele>
        <time>2020-07-05T16:35:02Z</time>
      </trkpt>
      <trkpt lat="45.23652" lon="5.55077">
        <ele>1440</ele>
        <time>2020-07-05T16:35:25Z</time>
      </trkpt>
      <trkpt lat="45.2365" lon="5.55096">
        <ele>1446</ele>
        <time>2020-07-05T16:35:43Z</time>
      </trkpt>
      <trkpt lat="45.23639" lon="5.55077">
        <ele>1449</ele>
        <time>2020-07-05T16:36:06Z</time>
      </trkpt>
      <trkpt lat="45.23625" lon="5.55101">
        <ele>1462</ele>
        <time>2020-07-05T16:36:36Z</time>
      </trkpt>
      <trkpt lat="45.23622" lon="5.55092">
        <ele>1463</ele>
        <time>2020-07-05T16:36:45Z</time>
      </trkpt>
      <trkpt lat="45.23605" lon="5.55059">
        <ele>1474</ele>
        <time>2020-07-05T16:37:23Z</time>
      </trkpt>
      <trkpt lat="45.23581" lon="5.54991">
        <ele>1503</ele>
        <time>2020-07-05T16:38:35Z</time>
      </trkpt>
      <trkpt lat="45.23552" lon="5.54917">
        <ele>1510</ele>
        <time>2020-07-05T16:39:54Z</time>
      </trkpt>
      <trkpt lat="45.23527" lon="5.54879">
        <ele>1523</ele>
        <time>2020-07-05T16:40:43Z</time>
      </trkpt>
      <trkpt lat="45.23522" lon="5.54828">
        <ele>1531</ele>
        <time>2020-07-05T16:41:32Z</time>
      </trkpt>
      <trkpt lat="45.23507" lon="5.5479">
        <ele>1549</ele>
        <time>2020-07-05T16:42:13Z</time>
      </trkpt>
      <trkpt lat="45.23505" lon="5.54772">
        <ele>1553</ele>
        <time>2020-07-05T16:42:30Z</time>
      </trkpt>
      <trkpt lat="45.23506" lon="5.54716">
        <ele>1553</ele>
        <time>2020-07-05T16:43:22Z</time>
      </trkpt>
      <trkpt lat="45.23503" lon="5.54691">
        <ele>1557</ele>
        <time>2020-07-05T16:43:46Z</time>
      </trkpt>
      <trkpt lat="45.23495" lon="5.54667">
        <ele>1562</ele>
        <time>2020-07-05T16:44:11Z</time>
      </trkpt>
      <trkpt lat="45.23492" lon="5.54643">
        <ele>1561</ele>
        <time>2020-07-05T16:44:34Z</time>
      </trkpt>
      <trkpt lat="45.23494" lon="5.54616">
        <ele>1559</ele>
        <time>2020-07-05T16:45:00Z</time>
      </trkpt>
      <trkpt lat="45.235" lon="5.546">
        <ele>1558</ele>
        <time>2020-07-05T16:45:17Z</time>
      </trkpt>
      <trkpt lat="45.23504" lon="5.5457">
        <ele>1550</ele>
        <time>2020-07-05T16:45:45Z</time>
      </trkpt>
      <trkpt lat="45.23514" lon="5.54545">
        <ele>1536</ele>
        <time>2020-07-05T16:46:12Z</time>
      </trkpt>
      <trkpt lat="45.23517" lon="5.54526">
        <ele>1530</ele>
        <time>2020-07-05T16:46:31Z</time>
      </trkpt>
      <trkpt lat="45.2352" lon="5.54521">
        <ele>1527</ele>
        <time>2020-07-05T16:46:37Z</time>
      </trkpt>
      <trkpt lat="45.23526" lon="5.54503">
        <ele>1520</ele>
        <time>2020-07-05T16:46:56Z</time>
      </trkpt>
      <trkpt lat="45.23541" lon="5.54494">
        <ele>1502</ele>
        <time>2020-07-05T16:47:17Z</time>
      </trkpt>
      <trkpt lat="45.23526" lon="5.54503">
        <ele>1520</ele>
        <time>2020-07-05T16:47:39Z</time>
      </trkpt>
      <trkpt lat="45.2352" lon="5.54521">
        <ele>1527</ele>
        <time>2020-07-05T16:47:58Z</time>
      </trkpt>
      <trkpt lat="45.23517" lon="5.54526">
        <ele>1530</ele>
        <time>2020-07-05T16:48:04Z</time>
      </trkpt>
      <trkpt lat="45.23514" lon="5.54545">
        <ele>1536</ele>
        <time>2020-07-05T16:48:22Z</time>
      </trkpt>
      <trkpt lat="45.23504" lon="5.5457">
        <ele>1550</ele>
        <time>2020-07-05T16:48:49Z</time>
      </trkpt>
      <trkpt lat="45.235" lon="5.546">
        <ele>1558</ele>
        <time>2020-07-05T16:49:18Z</time>
      </trkpt>
      <trkpt lat="45.23494" lon="5.54616">
        <ele>1559</ele>
        <time>2020-07-05T16:49:35Z</time>
      </trkpt>
      <trkpt lat="45.23492" lon="5.54643">
        <ele>1561</ele>
        <time>2020-07-05T16:50:00Z</time>
      </trkpt>
      <trkpt lat="45.23495" lon="5.54667">
        <ele>1562</ele>
        <time>2020-07-05T16:50:23Z</time>
      </trkpt>
      <trkpt lat="45.23503" lon="5.54691">
        <ele>1557</ele>
        <time>2020-07-05T16:50:48Z</time>
      </trkpt>
      <trkpt lat="45.23506" lon="5.54716">
        <ele>1553</ele>
        <time>2020-07-05T16:51:12Z</time>
      </trkpt>
      <trkpt lat="45.23505" lon="5.54772">
        <ele>1553</ele>
        <time>2020-07-05T16:52:05Z</time>
      </trkpt>
      <trkpt lat="45.23507" lon="5.5479">
        <ele>1549</ele>
        <time>2020-07-05T16:52:22Z</time>
      </trkpt>
      <trkpt lat="45.23522" lon="5.54828">
        <ele>1531</ele>
        <time>2020-07-05T16:53:03Z</time>
      </trkpt>
      <trkpt lat="45.23527" lon="5.54879">
        <ele>1523</ele>
        <time>2020-07-05T16:53:51Z</time>
      </trkpt>
      <trkpt lat="45.23552" lon="5.54917">
        <ele>1510</ele>
        <time>2020-07-05T16:54:40Z</time>
      </trkpt>
      <trkpt lat="45.23581" lon="5.54991">
        <ele>1503</ele>
        <time>2020-07-05T16:56:00Z</time>
      </trkpt>
      <trkpt lat="45.23605" lon="5.55059">
        <ele>1474</ele>
        <time>2020-07-05T16:57:11Z</time>
      </trkpt>
      <trkpt lat="45.23622" lon="5.55092">
        <ele>1463</ele>
        <time>2020-07-05T16:57:50Z</time>
      </trkpt>
      <trkpt lat="45.23629" lon="5.55114">
        <ele>1460</ele>
        <time>2020-07-05T16:58:12Z</time>
      </trkpt>
      <trkpt lat="45.23672" lon="5.55157">
        <ele>1445</ele>
        <time>2020-07-05T16:59:23Z</time>
      </trkpt>
      <trkpt lat="45.23679" lon="5.55177">
        <ele>1439</ele>
        <time>2020-07-05T16:59:43Z</time>
      </trkpt>
      <trkpt lat="45.2369" lon="5.552">
        <ele>1428</ele>
        <time>2020-07-05T17:00:10Z</time>
      </trkpt>
      <trkpt lat="45.23694" lon="5.55215">
        <ele>1427</ele>
        <time>2020-07-05T17:00:25Z</time>
      </trkpt>
      <trkpt lat="45.23699" lon="5.55243">
        <ele>1428</ele>
        <time>2020-07-05T17:00:52Z</time>
      </trkpt>
      <trkpt lat="45.23702" lon="5.55284">
        <ele>1436</ele>
        <time>2020-07-05T17:01:31Z</time>
      </trkpt>
      <trkpt lat="45.23708" lon="5.55306">
        <ele>1439</ele>
        <time>2020-07-05T17:01:53Z</time>
      </trkpt>
      <trkpt lat="45.23728" lon="5.55334">
        <ele>1442</ele>
        <time>2020-07-05T17:02:30Z</time>
      </trkpt>
      <trkpt lat="45.2374" lon="5.55378">
        <ele>1450</ele>
        <time>2020-07-05T17:03:15Z</time>
      </trkpt>
      <trkpt lat="45.23758" lon="5.55437">
        <ele>1455</ele>
        <time>2020-07-05T17:04:15Z</time>
      </trkpt>
      <trkpt lat="45.23777" lon="5.55474">
        <ele>1447</ele>
        <time>2020-07-05T17:04:58Z</time>
      </trkpt>
      <trkpt lat="45.23797" lon="5.55529">
        <ele>1451</ele>
        <time>2020-07-05T17:05:56Z</time>
      </trkpt>
      <trkpt lat="45.23797" lon="5.55568">
        <ele>1461</ele>
        <time>2020-07-05T17:06:33Z</time>
      </trkpt>
      <trkpt lat="45.23812" lon="5.55609">
        <ele>1466</ele>
        <time>2020-07-05T17:07:16Z</time>
      </trkpt>
      <trkpt lat="45.23813" lon="5.55635">
        <ele>1472</ele>
        <time>2020-07-05T17:07:41Z</time>
      </trkpt>
      <trkpt lat="45.2381" lon="5.55669">
        <ele>1481</ele>
        <time>2020-07-05T17:08:13Z</time>
      </trkpt>
      <trkpt lat="45.23808" lon="5.55742">
        <ele>1478</ele>
        <time>2020-07-05T17:09:22Z</time>
      </trkpt>
      <trkpt lat="45.23811" lon="5.55758">
        <ele>1477</ele>
        <time>2020-07-05T17:09:37Z</time>
      </trkpt>
      <trkpt lat="45.2382" lon="5.55764">
        <ele>1476</ele>
        <time>2020-07-05T17:09:50Z</time>
      </trkpt>
      <trkpt lat="45.23828" lon="5.5579">
        <ele>1475</ele>
        <time>2020-07-05T17:10:17Z</time>
      </trkpt>
      <trkpt lat="45.23824" lon="5.55829">
        <ele>1474</ele>
        <time>2020-07-05T17:10:54Z</time>
      </trkpt>
      <trkpt lat="45.23833" lon="5.55878">
        <ele>1474</ele>
        <time>2020-07-05T17:11:42Z</time>
      </trkpt>
      <trkpt lat="45.23822" lon="5.5595">
        <ele>1476</ele>
        <time>2020-07-05T17:12:51Z</time>
      </trkpt>
      <trkpt lat="45.23835" lon="5.55994">
        <ele>1476</ele>
        <time>2020-07-05T17:13:36Z</time>
      </trkpt>
      <trkpt lat="45.23838" lon="5.56023">
        <ele>1474</ele>
        <time>2020-07-05T17:14:03Z</time>
      </trkpt>
      <trkpt lat="45.23843" lon="5.56048">
        <ele>1469</ele>
        <time>2020-07-05T17:14:28Z</time>
      </trkpt>
      <trkpt lat="45.23841" lon="5.56078">
        <ele>1473</ele>
        <time>2020-07-05T17:14:56Z</time>
      </trkpt>
      <trkpt lat="45.23851" lon="5.56109">
        <ele>1465</ele>
        <time>2020-07-05T17:15:28Z</time>
      </trkpt>
      <trkpt lat="45.23844" lon="5.56212">
        <ele>1487</ele>
        <time>2020-07-05T17:17:05Z</time>
      </trkpt>
      <trkpt lat="45.23845" lon="5.56242">
        <ele>1489</ele>
        <time>2020-07-05T17:17:34Z</time>
      </trkpt>
      <trkpt lat="45.23849" lon="5.56258">
        <ele>1488</ele>
        <time>2020-07-05T17:17:49Z</time>
      </trkpt>
      <trkpt lat="45.23832" lon="5.56317">
        <ele>1506</ele>
        <time>2020-07-05T17:18:49Z</time>
      </trkpt>
      <trkpt lat="45.23835" lon="5.5633">
        <ele>1507</ele>
        <time>2020-07-05T17:19:02Z</time>
      </trkpt>
      <trkpt lat="45.23859" lon="5.56359">
        <ele>1494</ele>
        <time>2020-07-05T17:19:44Z</time>
      </trkpt>
      <trkpt lat="45.23856" lon="5.56379">
        <ele>1496</ele>
        <time>2020-07-05T17:20:03Z</time>
      </trkpt>
      <trkpt lat="45.23856" lon="5.5639">
        <ele>1496</ele>
        <time>2020-07-05T17:20:14Z</time>
      </trkpt>
      <trkpt lat="45.23862" lon="5.564">
        <ele>1492</ele>
        <time>2020-07-05T17:20:26Z</time>
      </trkpt>
      <trkpt lat="45.23867" lon="5.56426">
        <ele>1488</ele>
        <time>2020-07-05T17:20:51Z</time>
      </trkpt>
      <trkpt lat="45.2386" lon="5.56456">
        <ele>1490</ele>
        <time>2020-07-05T17:21:21Z</time>
      </trkpt>
      <trkpt lat="45.23853" lon="5.56472">
        <ele>1494</ele>
        <time>2020-07-05T17:21:39Z</time>
      </trkpt>
      <trkpt lat="45.2384" lon="5.56484">
        <ele>1504</ele>
        <time>2020-07-05T17:22:00Z</time>
      </trkpt>
      <trkpt lat="45.23831" lon="5.56506">
        <ele>1510</ele>
        <time>2020-07-05T17:22:23Z</time>
      </trkpt>
      <trkpt lat="45.23819" lon="5.56518">
        <ele>1511</ele>
        <time>2020-07-05T17:22:43Z</time>
      </trkpt>
      <trkpt lat="45.23812" lon="5.56521">
        <ele>1511</ele>
        <time>2020-07-05T17:22:53Z</time>
      </trkpt>
      <trkpt lat="45.23814" lon="5.56543">
        <ele>1513</ele>
        <time>2020-07-05T17:23:14Z</time>
      </trkpt>
      <trkpt lat="45.23817" lon="5.56554">
        <ele>1514</ele>
        <time>2020-07-05T17:23:25Z</time>
      </trkpt>
      <trkpt lat="45.23813" lon="5.56566">
        <ele>1515</ele>
        <time>2020-07-05T17:23:37Z</time>
      </trkpt>
      <trkpt lat="45.23808" lon="5.56627">
        <ele>1527</ele>
        <time>2020-07-05T17:24:35Z</time>
      </trkpt>
      <trkpt lat="45.23805" lon="5.5664">
        <ele>1531</ele>
        <time>2020-07-05T17:24:48Z</time>
      </trkpt>
      <trkpt lat="45.23807" lon="5.56662">
        <ele>1536</ele>
        <time>2020-07-05T17:25:09Z</time>
      </trkpt>
      <trkpt lat="45.23811" lon="5.56692">
        <ele>1542</ele>
        <time>2020-07-05T17:25:37Z</time>
      </trkpt>
      <trkpt lat="45.23816" lon="5.56715">
        <ele>1547</ele>
        <time>2020-07-05T17:26:00Z</time>
      </trkpt>
      <trkpt lat="45.23817" lon="5.56741">
        <ele>1552</ele>
        <time>2020-07-05T17:26:24Z</time>
      </trkpt>
      <trkpt lat="45.2382" lon="5.56773">
        <ele>1557</ele>
        <time>2020-07-05T17:26:55Z</time>
      </trkpt>
      <trkpt lat="45.23828" lon="5.56839">
        <ele>1566</ele>
        <time>2020-07-05T17:27:58Z</time>
      </trkpt>
      <trkpt lat="45.23833" lon="5.56854">
        <ele>1568</ele>
        <time>2020-07-05T17:28:13Z</time>
      </trkpt>
      <trkpt lat="45.23834" lon="5.56887">
        <ele>1575</ele>
        <time>2020-07-05T17:28:44Z</time>
      </trkpt>
      <trkpt lat="45.2384" lon="5.56899">
        <ele>1568</ele>
        <time>2020-07-05T17:28:58Z</time>
      </trkpt>
      <trkpt lat="45.23842" lon="5.56909">
        <ele>1567</ele>
        <time>2020-07-05T17:29:08Z</time>
      </trkpt>
      <trkpt lat="45.23842" lon="5.56924">
        <ele>1570</ele>
        <time>2020-07-05T17:29:22Z</time>
      </trkpt>
      <trkpt lat="45.23851" lon="5.56943">
        <ele>1560</ele>
        <time>2020-07-05T17:29:44Z</time>
      </trkpt>
      <trkpt lat="45.2386" lon="5.56966">
        <ele>1553</ele>
        <time>2020-07-05T17:30:08Z</time>
      </trkpt>
      <trkpt lat="45.23856" lon="5.56972">
        <ele>1559</ele>
        <time>2020-07-05T17:30:16Z</time>
      </trkpt>
      <trkpt lat="45.23857" lon="5.56979">
        <ele>1559</ele>
        <time>2020-07-05T17:30:23Z</time>
      </trkpt>
      <trkpt lat="45.23855" lon="5.56984">
        <ele>1563</ele>
        <time>2020-07-05T17:30:28Z</time>
      </trkpt>
      <trkpt lat="45.23846" lon="5.57001">
        <ele>1577</ele>
        <time>2020-07-05T17:30:48Z</time>
      </trkpt>
      <trkpt lat="45.23832" lon="5.57043">
        <ele>1594</ele>
        <time>2020-07-05T17:31:32Z</time>
      </trkpt>
      <trkpt lat="45.23829" lon="5.57063">
        <ele>1594</ele>
        <time>2020-07-05T17:31:51Z</time>
      </trkpt>
      <trkpt lat="45.23827" lon="5.57081">
        <ele>1594</ele>
        <time>2020-07-05T17:32:08Z</time>
      </trkpt>
      <trkpt lat="45.23833" lon="5.5712">
        <ele>1601</ele>
        <time>2020-07-05T17:32:46Z</time>
      </trkpt>
      <trkpt lat="45.23844" lon="5.57138">
        <ele>1599</ele>
        <time>2020-07-05T17:33:08Z</time>
      </trkpt>
      <trkpt lat="45.23864" lon="5.57155">
        <ele>1596</ele>
        <time>2020-07-05T17:33:39Z</time>
      </trkpt>
      <trkpt lat="45.2387" lon="5.57166">
        <ele>1599</ele>
        <time>2020-07-05T17:33:52Z</time>
      </trkpt>
      <trkpt lat="45.23879" lon="5.57175">
        <ele>1599</ele>
        <time>2020-07-05T17:34:07Z</time>
      </trkpt>
      <trkpt lat="45.23899" lon="5.5718">
        <ele>1597</ele>
        <time>2020-07-05T17:34:34Z</time>
      </trkpt>
      <trkpt lat="45.23906" lon="5.57186">
        <ele>1598</ele>
        <time>2020-07-05T17:34:45Z</time>
      </trkpt>
      <trkpt lat="45.2391" lon="5.57193">
        <ele>1600</ele>
        <time>2020-07-05T17:34:53Z</time>
      </trkpt>
      <trkpt lat="45.2391" lon="5.57202">
        <ele>1603</ele>
        <time>2020-07-05T17:35:02Z</time>
      </trkpt>
      <trkpt lat="45.23912" lon="5.57214">
        <ele>1608</ele>
        <time>2020-07-05T17:35:13Z</time>
      </trkpt>
      <trkpt lat="45.23919" lon="5.57229">
        <ele>1610</ele>
        <time>2020-07-05T17:35:30Z</time>
      </trkpt>
      <trkpt lat="45.23931" lon="5.57245">
        <ele>1598</ele>
        <time>2020-07-05T17:35:52Z</time>
      </trkpt>
      <trkpt lat="45.2395" lon="5.57264">
        <ele>1577</ele>
        <time>2020-07-05T17:36:23Z</time>
      </trkpt>
      <trkpt lat="45.23957" lon="5.57275">
        <ele>1572</ele>
        <time>2020-07-05T17:36:37Z</time>
      </trkpt>
      <trkpt lat="45.23942" lon="5.57343">
        <ele>1612</ele>
        <time>2020-07-05T17:37:44Z</time>
      </trkpt>
      <trkpt lat="45.23952" lon="5.57367">
        <ele>1606</ele>
        <time>2020-07-05T17:38:10Z</time>
      </trkpt>
      <trkpt lat="45.23971" lon="5.57376">
        <ele>1600</ele>
        <time>2020-07-05T17:38:37Z</time>
      </trkpt>
      <trkpt lat="45.23989" lon="5.57376">
        <ele>1594</ele>
        <time>2020-07-05T17:39:01Z</time>
      </trkpt>
      <trkpt lat="45.24015" lon="5.57417">
        <ele>1571</ele>
        <time>2020-07-05T17:39:53Z</time>
      </trkpt>
      <trkpt lat="45.24024" lon="5.5745">
        <ele>1544</ele>
        <time>2020-07-05T17:40:26Z</time>
      </trkpt>
      <trkpt lat="45.24024" lon="5.57471">
        <ele>1539</ele>
        <time>2020-07-05T17:40:46Z</time>
      </trkpt>
      <trkpt lat="45.24013" lon="5.57499">
        <ele>1559</ele>
        <time>2020-07-05T17:41:16Z</time>
      </trkpt>
      <trkpt lat="45.24031" lon="5.57559">
        <ele>1542</ele>
        <time>2020-07-05T17:42:17Z</time>
      </trkpt>
      <trkpt lat="45.24035" lon="5.57579">
        <ele>1548</ele>
        <time>2020-07-05T17:42:37Z</time>
      </trkpt>
      <trkpt lat="45.24052" lon="5.57589">
        <ele>1544</ele>
        <time>2020-07-05T17:43:01Z</time>
      </trkpt>
      <trkpt lat="45.24022" lon="5.57586">
        <ele>1555</ele>
        <time>2020-07-05T17:43:42Z</time>
      </trkpt>
      <trkpt lat="45.23979" lon="5.57602">
        <ele>1559</ele>
        <time>2020-07-05T17:44:41Z</time>
      </trkpt>
      <trkpt lat="45.24015" lon="5.57616">
        <ele>1551</ele>
        <time>2020-07-05T17:45:31Z</time>
      </trkpt>
      <trkpt lat="45.2404" lon="5.57637">
        <ele>1543</ele>
        <time>2020-07-05T17:46:10Z</time>
      </trkpt>
      <trkpt lat="45.24068" lon="5.57663">
        <ele>1539</ele>
        <time>2020-07-05T17:46:54Z</time>
      </trkpt>
      <trkpt lat="45.24094" lon="5.57694">
        <ele>1534</ele>
        <time>2020-07-05T17:47:39Z</time>
      </trkpt>
      <trkpt lat="45.24113" lon="5.57704">
        <ele>1533</ele>
        <time>2020-07-05T17:48:07Z</time>
      </trkpt>
      <trkpt lat="45.24154" lon="5.57693">
        <ele>1533</ele>
        <time>2020-07-05T17:49:02Z</time>
      </trkpt>
      <trkpt lat="45.24159" lon="5.57689">
        <ele>1533</ele>
        <time>2020-07-05T17:49:10Z</time>
      </trkpt>
      <trkpt lat="45.24243" lon="5.577">
        <ele>1448</ele>
        <time>2020-07-05T17:51:02Z</time>
      </trkpt>
      <trkpt lat="45.24281" lon="5.57714">
        <ele>1424</ele>
        <time>2020-07-05T17:51:55Z</time>
      </trkpt>
      <trkpt lat="45.24296" lon="5.57733">
        <ele>1414</ele>
        <time>2020-07-05T17:52:22Z</time>
      </trkpt>
      <trkpt lat="45.24303" lon="5.57746">
        <ele>1408</ele>
        <time>2020-07-05T17:52:37Z</time>
      </trkpt>
      <trkpt lat="45.24302" lon="5.57768">
        <ele>1431</ele>
        <time>2020-07-05T17:52:58Z</time>
      </trkpt>
      <trkpt lat="45.24309" lon="5.57794">
        <ele>1458</ele>
        <time>2020-07-05T17:53:24Z</time>
      </trkpt>
      <trkpt lat="45.24312" lon="5.57828">
        <ele>1498</ele>
        <time>2020-07-05T17:53:56Z</time>
      </trkpt>
      <trkpt lat="45.24321" lon="5.57839">
        <ele>1503</ele>
        <time>2020-07-05T17:54:12Z</time>
      </trkpt>
      <trkpt lat="45.24324" lon="5.57851">
        <ele>1509</ele>
        <time>2020-07-05T17:54:24Z</time>
      </trkpt>
      <trkpt lat="45.24329" lon="5.57863">
        <ele>1515</ele>
        <time>2020-07-05T17:54:37Z</time>
      </trkpt>
      <trkpt lat="45.24327" lon="5.57872">
        <ele>1521</ele>
        <time>2020-07-05T17:54:46Z</time>
      </trkpt>
      <trkpt lat="45.24324" lon="5.57882">
        <ele>1528</ele>
        <time>2020-07-05T17:54:56Z</time>
      </trkpt>
      <trkpt lat="45.24325" lon="5.57901">
        <ele>1540</ele>
        <time>2020-07-05T17:55:14Z</time>
      </trkpt>
      <trkpt lat="45.24329" lon="5.57911">
        <ele>1547</ele>
        <time>2020-07-05T17:55:25Z</time>
      </trkpt>
      <trkpt lat="45.24339" lon="5.57919">
        <ele>1539</ele>
        <time>2020-07-05T17:55:40Z</time>
      </trkpt>
      <trkpt lat="45.24344" lon="5.57918">
        <ele>1527</ele>
        <time>2020-07-05T17:55:47Z</time>
      </trkpt>
      <trkpt lat="45.24347" lon="5.5793">
        <ele>1525</ele>
        <time>2020-07-05T17:55:59Z</time>
      </trkpt>
      <trkpt lat="45.24344" lon="5.57941">
        <ele>1535</ele>
        <time>2020-07-05T17:56:10Z</time>
      </trkpt>
      <trkpt lat="45.24352" lon="5.57957">
        <ele>1525</ele>
        <time>2020-07-05T17:56:28Z</time>
      </trkpt>
      <trkpt lat="45.24354" lon="5.57971">
        <ele>1528</ele>
        <time>2020-07-05T17:56:42Z</time>
      </trkpt>
      <trkpt lat="45.24341" lon="5.58007">
        <ele>1560</ele>
        <time>2020-07-05T17:57:20Z</time>
      </trkpt>
      <trkpt lat="45.24342" lon="5.58014">
        <ele>1559</ele>
        <time>2020-07-05T17:57:26Z</time>
      </trkpt>
      <trkpt lat="45.24338" lon="5.58023">
        <ele>1565</ele>
        <time>2020-07-05T17:57:36Z</time>
      </trkpt>
      <trkpt lat="45.24341" lon="5.58033">
        <ele>1562</ele>
        <time>2020-07-05T17:57:47Z</time>
      </trkpt>
      <trkpt lat="45.24339" lon="5.58039">
        <ele>1565</ele>
        <time>2020-07-05T17:57:53Z</time>
      </trkpt>
      <trkpt lat="45.24327" lon="5.58057">
        <ele>1572</ele>
        <time>2020-07-05T17:58:16Z</time>
      </trkpt>
      <trkpt lat="45.24318" lon="5.58081">
        <ele>1571</ele>
        <time>2020-07-05T17:58:42Z</time>
      </trkpt>
      <trkpt lat="45.24324" lon="5.58095">
        <ele>1575</ele>
        <time>2020-07-05T17:58:57Z</time>
      </trkpt>
      <trkpt lat="45.24331" lon="5.58126">
        <ele>1581</ele>
        <time>2020-07-05T17:59:28Z</time>
      </trkpt>
      <trkpt lat="45.24328" lon="5.58144">
        <ele>1583</ele>
        <time>2020-07-05T17:59:45Z</time>
      </trkpt>
      <trkpt lat="45.24322" lon="5.58163">
        <ele>1584</ele>
        <time>2020-07-05T18:00:05Z</time>
      </trkpt>
      <trkpt lat="45.24319" lon="5.58192">
        <ele>1584</ele>
        <time>2020-07-05T18:00:32Z</time>
      </trkpt>
      <trkpt lat="45.24314" lon="5.58224">
        <ele>1583</ele>
        <time>2020-07-05T18:01:03Z</time>
      </trkpt>
      <trkpt lat="45.24314" lon="5.58236">
        <ele>1584</ele>
        <time>2020-07-05T18:01:14Z</time>
      </trkpt>
      <trkpt lat="45.2432" lon="5.58256">
        <ele>1585</ele>
        <time>2020-07-05T18:01:35Z</time>
      </trkpt>
      <trkpt lat="45.24325" lon="5.58301">
        <ele>1586</ele>
        <time>2020-07-05T18:02:18Z</time>
      </trkpt>
      <trkpt lat="45.2433" lon="5.58313">
        <ele>1587</ele>
        <time>2020-07-05T18:02:31Z</time>
      </trkpt>
      <trkpt lat="45.24343" lon="5.58336">
        <ele>1584</ele>
        <time>2020-07-05T18:02:58Z</time>
      </trkpt>
      <trkpt lat="45.24349" lon="5.58353">
        <ele>1583</ele>
        <time>2020-07-05T18:03:16Z</time>
      </trkpt>
      <trkpt lat="45.24355" lon="5.58356">
        <ele>1581</ele>
        <time>2020-07-05T18:03:25Z</time>
      </trkpt>
      <trkpt lat="45.24362" lon="5.58383">
        <ele>1581</ele>
        <time>2020-07-05T18:03:52Z</time>
      </trkpt>
      <trkpt lat="45.24368" lon="5.58388">
        <ele>1579</ele>
        <time>2020-07-05T18:04:01Z</time>
      </trkpt>
      <trkpt lat="45.24372" lon="5.58398">
        <ele>1578</ele>
        <time>2020-07-05T18:04:12Z</time>
      </trkpt>
      <trkpt lat="45.24379" lon="5.58407">
        <ele>1576</ele>
        <time>2020-07-05T18:04:24Z</time>
      </trkpt>
      <trkpt lat="45.24387" lon="5.58429">
        <ele>1570</ele>
        <time>2020-07-05T18:04:48Z</time>
      </trkpt>
      <trkpt lat="45.24379" lon="5.58407">
        <ele>1576</ele>
        <time>2020-07-05T18:05:11Z</time>
      </trkpt>
      <trkpt lat="45.24372" lon="5.58398">
        <ele>1578</ele>
        <time>2020-07-05T18:05:24Z</time>
      </trkpt>
      <trkpt lat="45.24368" lon="5.58388">
        <ele>1579</ele>
        <time>2020-07-05T18:05:34Z</time>
      </trkpt>
      <trkpt lat="45.24362" lon="5.58383">
        <ele>1581</ele>
        <time>2020-07-05T18:05:44Z</time>
      </trkpt>
      <trkpt lat="45.24355" lon="5.58356">
        <ele>1581</ele>
        <time>2020-07-05T18:06:11Z</time>
      </trkpt>
      <trkpt lat="45.24349" lon="5.58353">
        <ele>1583</ele>
        <time>2020-07-05T18:06:19Z</time>
      </trkpt>
      <trkpt lat="45.24343" lon="5.58336">
        <ele>1584</ele>
        <time>2020-07-05T18:06:37Z</time>
      </trkpt>
      <trkpt lat="45.24327" lon="5.58335">
        <ele>1587</ele>
        <time>2020-07-05T18:06:58Z</time>
      </trkpt>
      <trkpt lat="45.243" lon="5.58341">
        <ele>1580</ele>
        <time>2020-07-05T18:07:35Z</time>
      </trkpt>
      <trkpt lat="45.2429" lon="5.58339">
        <ele>1577</ele>
        <time>2020-07-05T18:07:48Z</time>
      </trkpt>
      <trkpt lat="45.24273" lon="5.58343">
        <ele>1572</ele>
        <time>2020-07-05T18:08:11Z</time>
      </trkpt>
      <trkpt lat="45.24268" lon="5.58358">
        <ele>1571</ele>
        <time>2020-07-05T18:08:27Z</time>
      </trkpt>
      <trkpt lat="45.24263" lon="5.58365">
        <ele>1569</ele>
        <time>2020-07-05T18:08:36Z</time>
      </trkpt>
      <trkpt lat="45.2425" lon="5.58377">
        <ele>1565</ele>
        <time>2020-07-05T18:08:57Z</time>
      </trkpt>
      <trkpt lat="45.2423" lon="5.58386">
        <ele>1556</ele>
        <time>2020-07-05T18:09:25Z</time>
      </trkpt>
      <trkpt lat="45.24227" lon="5.58391">
        <ele>1554</ele>
        <time>2020-07-05T18:09:31Z</time>
      </trkpt>
      <trkpt lat="45.24219" lon="5.58397">
        <ele>1550</ele>
        <time>2020-07-05T18:09:43Z</time>
      </trkpt>
      <trkpt lat="45.24214" lon="5.58409">
        <ele>1547</ele>
        <time>2020-07-05T18:09:56Z</time>
      </trkpt>
      <trkpt lat="45.24205" lon="5.58407">
        <ele>1543</ele>
        <time>2020-07-05T18:10:08Z</time>
      </trkpt>
      <trkpt lat="45.24184" lon="5.58408">
        <ele>1533</ele>
        <time>2020-07-05T18:10:37Z</time>
      </trkpt>
      <trkpt lat="45.24179" lon="5.58411">
        <ele>1530</ele>
        <time>2020-07-05T18:10:44Z</time>
      </trkpt>
      <trkpt lat="45.24153" lon="5.58417">
        <ele>1519</ele>
        <time>2020-07-05T18:11:19Z</time>
      </trkpt>
      <trkpt lat="45.24139" lon="5.58423">
        <ele>1515</ele>
        <time>2020-07-05T18:11:38Z</time>
      </trkpt>
      <trkpt lat="45.24142" lon="5.58397">
        <ele>1516</ele>
        <time>2020-07-05T18:12:03Z</time>
      </trkpt>
      <trkpt lat="45.24137" lon="5.58356">
        <ele>1517</ele>
        <time>2020-07-05T18:12:42Z</time>
      </trkpt>
      <trkpt lat="45.24128" lon="5.58327">
        <ele>1514</ele>
        <time>2020-07-05T18:13:12Z</time>
      </trkpt>
      <trkpt lat="45.24124" lon="5.58302">
        <ele>1513</ele>
        <time>2020-07-05T18:13:36Z</time>
      </trkpt>
      <trkpt lat="45.24129" lon="5.58236">
        <ele>1515</ele>
        <time>2020-07-05T18:14:39Z</time>
      </trkpt>
      <trkpt lat="45.24125" lon="5.58187">
        <ele>1512</ele>
        <time>2020-07-05T18:15:25Z</time>
      </trkpt>
      <trkpt lat="45.24142" lon="5.58126">
        <ele>1514</ele>
        <time>2020-07-05T18:16:27Z</time>
      </trkpt>
      <trkpt lat="45.24166" lon="5.58048">
        <ele>1515</ele>
        <time>2020-07-05T18:17:47Z</time>
      </trkpt>
      <trkpt lat="45.24177" lon="5.57964">
        <ele>1512</ele>
        <time>2020-07-05T18:19:07Z</time>
      </trkpt>
      <trkpt lat="45.24188" lon="5.57924">
        <ele>1515</ele>
        <time>2020-07-05T18:19:47Z</time>
      </trkpt>
      <trkpt lat="45.24173" lon="5.57895">
        <ele>1513</ele>
        <time>2020-07-05T18:20:21Z</time>
      </trkpt>
      <trkpt lat="45.24145" lon="5.57872">
        <ele>1510</ele>
        <time>2020-07-05T18:21:04Z</time>
      </trkpt>
      <trkpt lat="45.2411" lon="5.5783">
        <ele>1510</ele>
        <time>2020-07-05T18:22:05Z</time>
      </trkpt>
      <trkpt lat="45.24078" lon="5.57807">
        <ele>1510</ele>
        <time>2020-07-05T18:22:53Z</time>
      </trkpt>
      <trkpt lat="45.24065" lon="5.57789">
        <ele>1514</ele>
        <time>2020-07-05T18:23:17Z</time>
      </trkpt>
      <trkpt lat="45.24027" lon="5.57696">
        <ele>1534</ele>
        <time>2020-07-05T18:24:58Z</time>
      </trkpt>
      <trkpt lat="45.23947" lon="5.57644">
        <ele>1549</ele>
        <time>2020-07-05T18:26:56Z</time>
      </trkpt>
      <trkpt lat="45.23832" lon="5.57545">
        <ele>1561</ele>
        <time>2020-07-05T18:29:55Z</time>
      </trkpt>
      <trkpt lat="45.23692" lon="5.57345">
        <ele>1560</ele>
        <time>2020-07-05T18:34:20Z</time>
      </trkpt>
      <trkpt lat="45.23653" lon="5.57159">
        <ele>1561</ele>
        <time>2020-07-05T18:37:23Z</time>
      </trkpt>
      <trkpt lat="45.23654" lon="5.57022">
        <ele>1558</ele>
        <time>2020-07-05T18:39:31Z</time>
      </trkpt>
      <trkpt lat="45.2368" lon="5.56938">
        <ele>1563</ele>
        <time>2020-07-05T18:40:58Z</time>
      </trkpt>
      <trkpt lat="45.23724" lon="5.56826">
        <ele>1566</ele>
        <time>2020-07-05T18:42:58Z</time>
      </trkpt>
      <trkpt lat="45.23746" lon="5.56748">
        <ele>1559</ele>
        <time>2020-07-05T18:44:17Z</time>
      </trkpt>
      <trkpt lat="45.23805" lon="5.5664">
        <ele>1531</ele>
        <time>2020-07-05T18:46:26Z</time>
      </trkpt>
      <trkpt lat="45.23808" lon="5.56627">
        <ele>1527</ele>
        <time>2020-07-05T18:46:38Z</time>
      </trkpt>
      <trkpt lat="45.23813" lon="5.56566">
        <ele>1515</ele>
        <time>2020-07-05T18:47:36Z</time>
      </trkpt>
      <trkpt lat="45.23817" lon="5.56554">
        <ele>1514</ele>
        <time>2020-07-05T18:47:49Z</time>
      </trkpt>
      <trkpt lat="45.23814" lon="5.56543">
        <ele>1513</ele>
        <time>2020-07-05T18:48:00Z</time>
      </trkpt>
      <trkpt lat="45.23812" lon="5.56521">
        <ele>1511</ele>
        <time>2020-07-05T18:48:20Z</time>
      </trkpt>
      <trkpt lat="45.23819" lon="5.56518">
        <ele>1511</ele>
        <time>2020-07-05T18:48:30Z</time>
      </trkpt>
      <trkpt lat="45.23831" lon="5.56506">
        <ele>1510</ele>
        <time>2020-07-05T18:48:50Z</time>
      </trkpt>
      <trkpt lat="45.23839" lon="5.56497">
        <ele>1505</ele>
        <time>2020-07-05T18:49:03Z</time>
      </trkpt>
      <trkpt lat="45.23849" lon="5.56504">
        <ele>1496</ele>
        <time>2020-07-05T18:49:18Z</time>
      </trkpt>
      <trkpt lat="45.23861" lon="5.5652">
        <ele>1486</ele>
        <time>2020-07-05T18:49:40Z</time>
      </trkpt>
      <trkpt lat="45.23866" lon="5.56547">
        <ele>1482</ele>
        <time>2020-07-05T18:50:07Z</time>
      </trkpt>
      <trkpt lat="45.23867" lon="5.56552">
        <ele>1481</ele>
        <time>2020-07-05T18:50:11Z</time>
      </trkpt>
      <trkpt lat="45.23874" lon="5.56566">
        <ele>1474</ele>
        <time>2020-07-05T18:50:28Z</time>
      </trkpt>
      <trkpt lat="45.23874" lon="5.5659">
        <ele>1476</ele>
        <time>2020-07-05T18:50:50Z</time>
      </trkpt>
      <trkpt lat="45.23871" lon="5.566">
        <ele>1480</ele>
        <time>2020-07-05T18:51:00Z</time>
      </trkpt>
      <trkpt lat="45.23871" lon="5.5661">
        <ele>1482</ele>
        <time>2020-07-05T18:51:10Z</time>
      </trkpt>
      <trkpt lat="45.23874" lon="5.56615">
        <ele>1480</ele>
        <time>2020-07-05T18:51:16Z</time>
      </trkpt>
      <trkpt lat="45.23884" lon="5.56658">
        <ele>1476</ele>
        <time>2020-07-05T18:51:58Z</time>
      </trkpt>
      <trkpt lat="45.23903" lon="5.56694">
        <ele>1459</ele>
        <time>2020-07-05T18:52:41Z</time>
      </trkpt>
      <trkpt lat="45.23914" lon="5.56724">
        <ele>1449</ele>
        <time>2020-07-05T18:53:12Z</time>
      </trkpt>
      <trkpt lat="45.23944" lon="5.56772">
        <ele>1432</ele>
        <time>2020-07-05T18:54:13Z</time>
      </trkpt>
      <trkpt lat="45.2396" lon="5.56769">
        <ele>1422</ele>
        <time>2020-07-05T18:54:34Z</time>
      </trkpt>
      <trkpt lat="45.23966" lon="5.56721">
        <ele>1413</ele>
        <time>2020-07-05T18:55:20Z</time>
      </trkpt>
      <trkpt lat="45.23974" lon="5.56708">
        <ele>1406</ele>
        <time>2020-07-05T18:55:36Z</time>
      </trkpt>
      <trkpt lat="45.23992" lon="5.56708">
        <ele>1394</ele>
        <time>2020-07-05T18:56:00Z</time>
      </trkpt>
      <trkpt lat="45.24004" lon="5.56678">
        <ele>1383</ele>
        <time>2020-07-05T18:56:33Z</time>
      </trkpt>
      <trkpt lat="45.24014" lon="5.56644">
        <ele>1375</ele>
        <time>2020-07-05T18:57:07Z</time>
      </trkpt>
      <trkpt lat="45.24016" lon="5.566">
        <ele>1369</ele>
        <time>2020-07-05T18:57:49Z</time>
      </trkpt>
      <trkpt lat="45.24027" lon="5.56577">
        <ele>1362</ele>
        <time>2020-07-05T18:58:15Z</time>
      </trkpt>
      <trkpt lat="45.24078" lon="5.56579">
        <ele>1338</ele>
        <time>2020-07-05T18:59:23Z</time>
      </trkpt>
      <trkpt lat="45.24128" lon="5.56602">
        <ele>1320</ele>
        <time>2020-07-05T19:00:33Z</time>
      </trkpt>
      <trkpt lat="45.24155" lon="5.56592">
        <ele>1307</ele>
        <time>2020-07-05T19:01:10Z</time>
      </trkpt>
      <trkpt lat="45.24177" lon="5.56576">
        <ele>1300</ele>
        <time>2020-07-05T19:01:43Z</time>
      </trkpt>
      <trkpt lat="45.24197" lon="5.56551">
        <ele>1296</ele>
        <time>2020-07-05T19:02:19Z</time>
      </trkpt>
      <trkpt lat="45.24209" lon="5.56527">
        <ele>1292</ele>
        <time>2020-07-05T19:02:47Z</time>
      </trkpt>
      <trkpt lat="45.24227" lon="5.56522">
        <ele>1288</ele>
        <time>2020-07-05T19:03:11Z</time>
      </trkpt>
      <trkpt lat="45.24227" lon="5.56508">
        <ele>1287</ele>
        <time>2020-07-05T19:03:24Z</time>
      </trkpt>
      <trkpt lat="45.24224" lon="5.5649">
        <ele>1286</ele>
        <time>2020-07-05T19:03:42Z</time>
      </trkpt>
      <trkpt lat="45.242" lon="5.56413">
        <ele>1287</ele>
        <time>2020-07-05T19:05:01Z</time>
      </trkpt>
      <trkpt lat="45.24235" lon="5.56334">
        <ele>1268</ele>
        <time>2020-07-05T19:06:28Z</time>
      </trkpt>
      <trkpt lat="45.24254" lon="5.56245">
        <ele>1252</ele>
        <time>2020-07-05T19:07:56Z</time>
      </trkpt>
      <trkpt lat="45.24276" lon="5.56212">
        <ele>1245</ele>
        <time>2020-07-05T19:08:39Z</time>
      </trkpt>
      <trkpt lat="45.24278" lon="5.56198">
        <ele>1244</ele>
        <time>2020-07-05T19:08:52Z</time>
      </trkpt>
      <trkpt lat="45.24267" lon="5.56166">
        <ele>1241</ele>
        <time>2020-07-05T19:09:25Z</time>
      </trkpt>
      <trkpt lat="45.24234" lon="5.56143">
        <ele>1241</ele>
        <time>2020-07-05T19:10:14Z</time>
      </trkpt>
      <trkpt lat="45.24196" lon="5.56045">
        <ele>1223</ele>
        <time>2020-07-05T19:12:00Z</time>
      </trkpt>
      <trkpt lat="45.24181" lon="5.56031">
        <ele>1220</ele>
        <time>2020-07-05T19:12:24Z</time>
      </trkpt>
      <trkpt lat="45.24164" lon="5.55978">
        <ele>1211</ele>
        <time>2020-07-05T19:13:18Z</time>
      </trkpt>
      <trkpt lat="45.24152" lon="5.55956">
        <ele>1213</ele>
        <time>2020-07-05T19:13:44Z</time>
      </trkpt>
      <trkpt lat="45.2415" lon="5.55947">
        <ele>1212</ele>
        <time>2020-07-05T19:13:53Z</time>
      </trkpt>
    </trkseg>
  </trk>
</gpx>